Time;durP1;ratioP1;P1;durP2;ratioP2;P2;SDS_P1;SDS_P2;PMS_P1;PMS_P2;Temp;Humidity;BMP_temperature;BMP_pressure;BME280_temperature;BME280_humidity;BME280_pressure;Samples;Min_cycle;Max_cycle;Signal;HPM_P1;HPM_P2
2021/06/22 00:02:04;;;;;;;2.27;1.87;;;17.70;1.00;;;;;;5073604;28;20203;-76
2021/06/22 00:04:30;;;;;;;2.40;2.20;;;17.60;1.00;;;;;;5080499;28;20429;-73
2021/06/22 00:06:56;;;;;;;2.17;2.07;;;;;;;;;;5093015;28;20413;-73
2021/06/22 00:09:22;;;;;;;5.13;2.50;;;;;;;;;;5076998;28;20180;-73
2021/06/22 00:11:48;;;;;;;2.13;1.93;;;17.70;1.00;;;;;;5072882;28;20771;-73
2021/06/22 00:14:14;;;;;;;4.17;2.20;;;17.60;1.00;;;;;;5078641;28;20396;-73
2021/06/22 00:16:40;;;;;;;2.00;1.80;;;17.70;1.00;;;;;;5093358;28;20215;-73
2021/06/22 00:19:05;;;;;;;3.63;2.00;;;17.60;1.00;;;;;;5093585;28;20394;-77
2021/06/22 00:21:31;;;;;;;2.60;2.40;;;17.60;1.00;;;;;;5077333;28;20631;-76
2021/06/22 00:23:57;;;;;;;2.27;2.07;;;;;;;;;;5073189;28;20768;-77
2021/06/22 00:26:41;;;;;;;3.43;2.10;;;17.60;1.00;;;;;;5073370;28;20513;-77
2021/06/22 00:29:06;;;;;;;4.53;2.07;;;17.50;1.00;;;;;;5075141;28;20441;-76
2021/06/22 00:31:41;;;;;;;2.40;1.87;;;17.50;1.00;;;;;;5072691;28;20401;-76
2021/06/22 00:34:06;;;;;;;1.50;1.40;;;17.50;1.00;;;;;;5073304;28;20531;-77
2021/06/22 00:36:35;;;;;;;2.03;1.40;;;17.40;1.00;;;;;;5073167;28;20419;-77
2021/06/22 00:39:52;;;;;;;10.23;2.20;;;17.30;1.00;;;;;;5073113;28;20592;-76
2021/06/22 00:42:47;;;;;;;2.60;1.43;;;17.30;1.00;;;;;;5076595;28;20365;-76
2021/06/22 00:45:35;;;;;;;5.40;2.20;;;17.20;1.00;;;;;;5077389;28;20795;-77
2021/06/22 00:48:05;;;;;;;1.63;1.43;;;17.20;1.00;;;;;;5076779;28;20839;-77
2021/06/22 00:50:31;;;;;;;6.83;1.73;;;17.20;1.00;;;;;;5082876;28;20731;-73
2021/06/22 00:52:58;;;;;;;3.77;1.77;;;;;;;;;;5092281;28;20489;-73
2021/06/22 00:55:30;;;;;;;5.70;2.00;;;17.10;1.00;;;;;;5076899;28;20423;-73
2021/06/22 00:58:06;;;;;;;1.87;1.70;;;17.00;1.00;;;;;;5076502;28;20444;-73
2021/06/22 01:00:37;;;;;;;1.50;1.40;;;17.00;1.00;;;;;;5079019;28;20521;-73
2021/06/22 01:03:03;;;;;;;8.43;2.53;;;;;;;;;;5076378;28;20368;-73
2021/06/22 01:05:29;;;;;;;1.83;1.13;;;16.90;1.00;;;;;;5078360;28;20908;-73
2021/06/22 01:07:56;;;;;;;1.60;1.43;;;16.90;1.00;;;;;;5094928;28;20465;-73
2021/06/22 01:10:24;;;;;;;6.43;1.77;;;16.90;1.00;;;;;;5095471;28;20398;-73
2021/06/22 01:12:51;;;;;;;5.00;1.70;;;16.90;1.00;;;;;;5076289;28;20372;-73
2021/06/22 01:15:19;;;;;;;2.23;1.40;;;16.80;1.00;;;;;;5076310;28;20372;-73
2021/06/22 01:17:51;;;;;;;3.53;1.90;;;16.80;1.00;;;;;;5076089;28;20461;-73
2021/06/22 01:20:17;;;;;;;7.67;1.83;;;16.80;1.00;;;;;;5076083;28;20395;-73
2021/06/22 01:22:44;;;;;;;6.50;1.97;;;16.80;1.00;;;;;;5076259;28;20394;-73
2021/06/22 01:25:12;;;;;;;3.17;1.57;;;16.80;1.00;;;;;;5076041;28;20484;-73
2021/06/22 01:27:41;;;;;;;1.63;1.23;;;16.80;1.00;;;;;;5086304;28;20991;-73
2021/06/22 01:30:08;;;;;;;1.53;1.43;;;16.70;1.00;;;;;;5076016;28;20803;-73
2021/06/22 01:32:34;;;;;;;6.93;1.83;;;16.70;1.00;;;;;;5075444;28;20396;-73
2021/06/22 01:35:11;;;;;;;10.13;1.53;;;16.70;1.00;;;;;;5076739;28;20483;-77
2021/06/22 01:38:05;;;;;;;1.27;1.17;;;16.70;1.00;;;;;;5076023;28;20491;-77
2021/06/22 01:40:49;;;;;;;2.57;1.40;;;16.60;1.00;;;;;;5076473;28;20373;-77
2021/06/22 01:43:29;;;;;;;4.50;1.60;;;16.60;1.00;;;;;;5076585;28;20758;-76
2021/06/22 01:46:11;;;;;;;2.17;1.00;;;16.60;1.00;;;;;;5094544;28;20416;-76
2021/06/22 01:48:42;;;;;;;1.13;0.97;;;16.60;1.00;;;;;;5076050;28;20396;-76
2021/06/22 01:51:46;;;;;;;3.13;1.13;;;16.60;1.00;;;;;;5091870;28;20461;-77
2021/06/22 01:54:12;;;;;;;0.90;0.90;;;16.60;1.00;;;;;;5075494;28;20399;-76
2021/06/22 01:56:53;;;;;;;1.00;0.90;;;16.60;1.00;;;;;;5078843;28;20434;-77
2021/06/22 01:59:38;;;;;;;19.13;2.30;;;16.50;1.00;;;;;;5094275;28;20257;-77
2021/06/22 02:02:22;;;;;;;0.83;0.83;;;16.50;1.00;;;;;;5081578;28;20725;-77
2021/06/22 02:05:23;;;;;;;0.77;0.77;;;16.50;1.00;;;;;;5076531;28;20385;-77
2021/06/22 02:07:59;;;;;;;1.83;0.93;;;16.50;1.00;;;;;;5075063;28;20442;-76
2021/06/22 02:10:52;;;;;;;1.57;0.80;;;16.50;1.00;;;;;;5075484;28;20380;-77
2021/06/22 02:13:20;;;;;;;6.60;1.57;;;16.40;1.00;;;;;;5094154;28;20382;-76
2021/06/22 02:15:59;;;;;;;0.80;0.80;;;16.40;1.00;;;;;;5094551;28;20842;-77
2021/06/22 02:18:35;;;;;;;1.20;0.80;;;16.40;1.00;;;;;;5095486;28;20445;-76
2021/06/22 02:21:03;;;;;;;1.33;0.80;;;16.40;1.00;;;;;;5081788;28;20420;-73
2021/06/22 02:23:35;;;;;;;1.27;0.70;;;16.50;1.00;;;;;;5075034;28;20394;-73
2021/06/22 02:26:03;;;;;;;4.43;1.33;;;16.50;1.00;;;;;;5090088;28;20407;-73
2021/06/22 02:28:29;;;;;;;4.60;1.37;;;16.50;1.00;;;;;;5087902;28;20408;-73
2021/06/22 02:30:56;;;;;;;2.60;1.00;;;16.50;1.00;;;;;;5074928;28;20392;-73
2021/06/22 02:33:21;;;;;;;0.70;0.60;;;16.50;1.00;;;;;;5076762;28;20397;-73
2021/06/22 02:35:47;;;;;;;0.80;0.73;;;16.40;1.00;;;;;;5090393;28;20500;-73
2021/06/22 02:38:13;;;;;;;0.80;0.70;;;16.40;1.00;;;;;;5074021;28;20423;-73
2021/06/22 02:40:41;;;;;;;0.80;0.80;;;16.30;1.00;;;;;;5074295;28;20432;-73
2021/06/22 02:43:07;;;;;;;2.40;1.23;;;16.20;1.00;;;;;;5074004;28;20444;-73
2021/06/22 02:45:34;;;;;;;2.50;0.93;;;16.10;1.00;;;;;;5072853;28;20848;-73
2021/06/22 02:48:01;;;;;;;2.60;1.20;;;16.10;1.00;;;;;;5074596;28;20436;-73
2021/06/22 02:50:35;;;;;;;1.43;1.00;;;16.00;1.00;;;;;;5074188;28;20413;-76
2021/06/22 02:53:01;;;;;;;0.90;0.90;;;16.00;1.00;;;;;;5076698;28;20389;-76
2021/06/22 02:55:27;;;;;;;0.77;0.77;;;16.00;1.00;;;;;;5095448;28;20398;-77
2021/06/22 02:57:55;;;;;;;3.70;1.00;;;15.80;1.00;;;;;;5082532;28;20465;-77
2021/06/22 03:00:40;;;;;;;3.53;1.13;;;15.80;1.00;;;;;;5074800;28;20556;-77
2021/06/22 03:03:06;;;;;;;2.20;0.97;;;15.80;1.00;;;;;;5093879;28;20423;-77
2021/06/22 03:05:32;;;;;;;5.43;1.43;;;15.70;1.00;;;;;;5092833;28;20424;-77
2021/06/22 03:08:16;;;;;;;4.00;1.27;;;15.70;1.00;;;;;;5085466;28;20179;-77
2021/06/22 03:10:52;;;;;;;3.60;1.23;;;15.70;1.00;;;;;;5074467;28;20238;-77
2021/06/22 03:13:34;;;;;;;1.17;1.07;;;15.70;1.00;;;;;;5074198;28;20883;-77
2021/06/22 03:16:16;;;;;;;1.03;0.80;;;15.70;1.00;;;;;;5074050;28;20888;-77
2021/06/22 03:18:53;;;;;;;3.50;1.20;;;15.70;1.00;;;;;;5073816;28;20741;-77
2021/06/22 03:21:19;;;;;;;2.30;1.10;;;15.70;1.00;;;;;;5076513;28;20384;-73
2021/06/22 03:23:45;;;;;;;0.80;0.80;;;;;;;;;;5078011;28;20826;-73
2021/06/22 03:26:12;;;;;;;6.20;1.17;;;15.70;1.00;;;;;;5073563;28;20167;-73
2021/06/22 03:28:38;;;;;;;1.33;0.80;;;15.70;1.00;;;;;;5073831;28;20400;-73
2021/06/22 03:31:04;;;;;;;0.70;0.70;;;15.70;1.00;;;;;;5072475;28;20439;-73
2021/06/22 03:33:29;;;;;;;2.30;0.80;;;15.70;1.00;;;;;;5073534;28;20171;-73
2021/06/22 03:39:23;;;;;;;3.07;1.13;;;15.80;1.00;;;;;;5073866;28;20544;-77
2021/06/22 03:41:53;;;;;;;0.90;0.70;;;15.80;1.00;;;;;;5073661;28;20860;-77
2021/06/22 03:44:23;;;;;;;0.90;0.90;;;15.70;1.00;;;;;;5092719;28;20907;-77
2021/06/22 03:46:48;;;;;;;2.80;1.43;;;15.80;1.00;;;;;;5092052;28;20424;-76
2021/06/22 03:49:14;;;;;;;1.03;0.90;;;15.80;1.00;;;;;;5093789;28;20395;-77
2021/06/22 03:51:40;;;;;;;4.30;1.37;;;;;;;;;;5075991;28;20163;-77
2021/06/22 03:54:11;;;;;;;0.80;0.80;;;15.80;1.00;;;;;;5074014;28;20415;-76
2021/06/22 03:56:47;;;;;;;0.70;0.70;;;15.80;1.00;;;;;;5077117;28;20455;-77
2021/06/22 03:59:12;;;;;;;2.00;0.73;;;15.90;1.00;;;;;;5090424;28;20399;-77
2021/06/22 04:05:32;;;;;;;2.83;1.00;;;15.90;1.00;;;;;;5076568;28;20213;-85
2021/06/22 04:08:11;;;;;;;0.70;0.70;;;15.90;1.00;;;;;;5077787;28;20401;-84
2021/06/22 04:13:58;;;;;;;4.63;1.13;;;16.00;1.00;;;;;;5072949;28;20351;-84
2021/06/22 04:16:58;;;;;;;0.63;0.63;;;16.00;1.00;;;;;;5072544;28;20370;-83
2021/06/22 04:26:07;;;;;;;3.40;0.77;;;16.10;1.00;;;;;;5073232;28;20335;-83
2021/06/22 04:31:55;;;;;;;0.60;0.57;;;16.30;1.00;;;;;;5073127;28;20185;-84
2021/06/22 04:37:42;;;;;;;3.33;0.90;;;16.50;1.00;;;;;;5087924;28;20559;-84
2021/06/22 04:43:30;;;;;;;0.70;0.70;;;;;;;;;;5077263;28;20312;-84
2021/06/22 04:52:40;;;;;;;3.47;1.13;;;17.10;1.00;;;;;;5072936;28;20463;-80
2021/06/22 04:55:20;;;;;;;2.77;0.80;;;17.10;99.90;;;;;;5073669;28;21175;-80
2021/06/22 04:57:46;;;;;;;2.50;0.90;;;17.20;99.90;;;;;;5072588;28;20199;-80
2021/06/22 05:03:35;;;;;;;0.80;0.80;;;17.40;99.90;;;;;;5086204;28;20453;-80
2021/06/22 05:06:34;;;;;;;7.23;0.70;;;17.40;99.90;;;;;;5091816;28;20918;-82
2021/06/22 05:19:06;;;;;;;2.20;0.90;;;17.50;99.90;;;;;;5072581;28;20471;-82
2021/06/22 05:25:22;;;;;;;2.80;1.00;;;17.60;99.90;;;;;;5077539;28;20251;-81
2021/06/22 05:31:23;;;;;;;1.00;0.90;;;17.80;99.90;;;;;;5096004;28;20401;-78
2021/06/22 05:33:48;;;;;;;1.37;0.90;;;17.80;99.90;;;;;;5084704;28;20381;-78
2021/06/22 05:39:36;;;;;;;2.97;1.27;;;17.80;99.90;;;;;;5075837;28;20195;-78
2021/06/22 05:45:46;;;;;;;0.83;0.63;;;18.10;99.90;;;;;;5096088;28;20197;-78
2021/06/22 05:48:23;;;;;;;6.47;1.47;;;18.30;99.90;;;;;;5095618;28;20410;-77
2021/06/22 05:51:28;;;;;;;4.60;1.40;;;18.50;99.90;;;;;;5078217;28;20885;-77
2021/06/22 05:54:05;;;;;;;0.80;0.80;;;18.70;99.90;;;;;;5089968;28;20917;-78
2021/06/22 05:56:30;;;;;;;0.70;0.70;;;18.70;99.90;;;;;;5075790;28;20398;-78
2021/06/22 05:59:16;;;;;;;0.80;0.77;;;18.70;99.90;;;;;;5075313;28;20784;-77
2021/06/22 06:01:53;;;;;;;4.80;1.20;;;18.90;99.90;;;;;;5073826;28;20173;-78
2021/06/22 06:04:23;;;;;;;3.73;0.87;;;19.10;99.90;;;;;;5085425;28;20798;-78
2021/06/22 06:07:05;;;;;;;6.27;2.00;;;19.30;99.90;;;;;;5084227;28;20886;-78
2021/06/22 06:10:05;;;;;;;31.73;5.80;;;19.60;99.90;;;;;;5086650;28;20433;-78
2021/06/22 06:12:47;;;;;;;1.10;0.80;;;20.00;99.90;;;;;;5075274;28;20371;-78
2021/06/22 06:15:29;;;;;;;5.13;1.40;;;20.30;99.90;;;;;;5075218;28;20393;-78
2021/06/22 06:17:54;;;;;;;10.27;1.10;;;20.50;99.90;;;;;;5079815;28;20460;-78
2021/06/22 06:20:20;;;;;;;5.20;0.77;;;20.50;99.90;;;;;;5093342;28;20923;-78
2021/06/22 06:22:47;;;;;;;0.83;0.80;;;20.60;99.90;;;;;;5087903;28;20178;-74
2021/06/22 06:25:14;;;;;;;1.70;1.00;;;20.70;99.90;;;;;;5077932;28;20170;-74
2021/06/22 06:30:20;;;;;;;0.70;0.60;;;21.00;99.90;;;;;;5074194;28;20404;-74
2021/06/22 06:32:46;;;;;;;6.97;1.00;;;21.00;99.90;;;;;;5080393;28;20417;-78
2021/06/22 06:35:13;;;;;;;2.70;0.70;;;21.10;99.90;;;;;;5092614;28;20380;-77
2021/06/22 06:37:39;;;;;;;1.33;0.90;;;21.10;99.90;;;;;;5088833;28;20964;-76
2021/06/22 06:40:06;;;;;;;0.80;0.80;;;21.10;99.90;;;;;;5073400;28;20422;-75
2021/06/22 06:42:32;;;;;;;0.70;0.70;;;;;;;;;;5073731;28;20398;-75
2021/06/22 06:44:57;;;;;;;1.20;0.90;;;20.90;99.90;;;;;;5077968;28;20710;-75
2021/06/22 06:47:23;;;;;;;2.50;1.00;;;20.80;99.90;;;;;;5093167;28;20428;-75
2021/06/22 06:49:49;;;;;;;1.10;1.00;;;20.80;99.90;;;;;;5093950;28;20163;-76
2021/06/22 06:52:14;;;;;;;6.20;0.97;;;20.90;99.90;;;;;;5094630;28;20178;-76
2021/06/22 06:54:40;;;;;;;0.70;0.70;;;21.10;99.90;;;;;;5092405;28;20206;-76
2021/06/22 06:57:07;;;;;;;0.93;0.83;;;21.20;99.90;;;;;;5093588;28;20283;-76
2021/06/22 06:59:32;;;;;;;1.33;0.90;;;21.20;99.90;;;;;;5077790;28;20195;-75
2021/06/22 07:01:58;;;;;;;4.50;1.47;;;21.30;99.90;;;;;;5072738;28;20401;-78
2021/06/22 07:04:24;;;;;;;1.57;0.90;;;21.50;99.90;;;;;;5077575;28;20177;-77
2021/06/22 07:06:49;;;;;;;0.70;0.70;;;21.50;99.90;;;;;;5085208;28;20599;-77
2021/06/22 07:09:15;;;;;;;5.33;0.70;;;21.50;99.90;;;;;;5077390;28;20199;-77
2021/06/22 07:11:41;;;;;;;0.70;0.70;;;21.60;99.90;;;;;;5078246;28;20172;-77
2021/06/22 07:14:06;;;;;;;3.43;0.80;;;21.60;99.90;;;;;;5092828;28;20168;-77
2021/06/22 07:16:33;;;;;;;1.10;0.90;;;21.60;99.90;;;;;;5093594;28;20155;-77
2021/06/22 07:18:59;;;;;;;5.93;1.53;;;;;;;;;;5091880;28;20151;-77
2021/06/22 07:21:25;;;;;;;3.93;0.97;;;21.50;99.90;;;;;;5091838;28;20389;-77
2021/06/22 07:23:52;;;;;;;0.80;0.80;;;;;;;;;;5074826;28;20431;-77
2021/06/22 07:26:18;;;;;;;2.27;0.73;;;21.70;99.90;;;;;;5089851;28;20160;-77
2021/06/22 07:28:44;;;;;;;0.80;0.73;;;21.70;99.90;;;;;;5076083;28;20429;-77
2021/06/22 07:31:11;;;;;;;2.70;0.97;;;21.70;99.90;;;;;;5072709;28;20400;-78
2021/06/22 07:33:38;;;;;;;0.70;0.70;;;21.60;99.90;;;;;;5087668;28;20410;-77
2021/06/22 07:36:07;;;;;;;1.97;0.60;;;21.60;99.90;;;;;;5092622;28;20402;-77
2021/06/22 07:38:33;;;;;;;0.83;0.83;;;;;;;;;;5091051;28;20841;-73
2021/06/22 07:40:58;;;;;;;0.73;0.60;;;21.90;99.90;;;;;;5093019;28;20413;-74
2021/06/22 07:43:24;;;;;;;1.20;0.70;;;22.10;99.90;;;;;;5092084;28;20402;-73
2021/06/22 07:45:50;;;;;;;0.93;0.70;;;22.30;99.90;;;;;;5091934;28;20636;-73
2021/06/22 07:48:16;;;;;;;0.70;0.70;;;22.40;99.90;;;;;;5088906;28;20610;-73
2021/06/22 07:50:42;;;;;;;1.33;0.80;;;22.30;99.90;;;;;;5076867;28;20504;-74
2021/06/22 07:53:08;;;;;;;0.90;0.90;;;22.40;99.90;;;;;;5072844;28;20199;-77
2021/06/22 07:55:34;;;;;;;3.00;0.90;;;22.70;99.90;;;;;;5077595;28;20467;-77
2021/06/22 07:58:00;;;;;;;4.23;1.13;;;22.80;99.90;;;;;;5089386;28;20296;-77
2021/06/22 08:00:38;;;;;;;0.60;0.60;;;22.80;99.90;;;;;;5075389;28;20831;-77
2021/06/22 08:03:06;;;;;;;1.53;0.70;;;23.00;99.90;;;;;;5072050;28;20398;-77
2021/06/22 08:05:32;;;;;;;1.00;0.80;;;23.30;99.90;;;;;;5082314;28;20439;-77
2021/06/22 08:07:58;;;;;;;1.10;0.90;;;23.60;99.90;;;;;;5073096;28;20441;-77
2021/06/22 08:10:24;;;;;;;0.80;0.70;;;23.60;99.90;;;;;;5073731;28;20436;-77
2021/06/22 08:12:50;;;;;;;4.07;0.87;;;;;;;;;;5075781;28;20182;-77
2021/06/22 08:15:16;;;;;;;6.03;1.00;;;;;;;;;;5091615;28;20419;-77
2021/06/22 08:17:42;;;;;;;13.53;1.40;;;;;;;;;;5086486;28;20447;-77
2021/06/22 08:20:09;;;;;;;2.10;0.70;;;24.10;99.90;;;;;;5073152;28;20485;-73
2021/06/22 08:22:41;;;;;;;3.13;1.03;;;;;;;;;;5070885;28;20414;-73
2021/06/22 08:25:09;;;;;;;1.47;0.80;;;24.00;99.90;;;;;;5082811;28;20918;-78
2021/06/22 08:27:35;;;;;;;0.63;0.63;;;23.90;99.90;;;;;;5070613;28;20502;-77
2021/06/22 08:30:05;;;;;;;2.93;0.87;;;23.90;99.90;;;;;;5072098;28;20399;-77
2021/06/22 08:32:31;;;;;;;0.80;0.70;;;24.00;99.90;;;;;;5077300;28;20486;-77
2021/06/22 08:34:57;;;;;;;1.20;0.80;;;23.90;99.90;;;;;;5077790;28;20941;-77
2021/06/22 08:37:23;;;;;;;0.70;0.70;;;23.90;99.90;;;;;;5072165;28;20245;-77
2021/06/22 08:39:48;;;;;;;4.20;0.90;;;24.00;99.90;;;;;;5072415;28;20168;-77
2021/06/22 08:42:16;;;;;;;1.00;0.80;;;24.20;99.90;;;;;;5071538;28;20410;-77
2021/06/22 08:44:49;;;;;;;2.00;0.90;;;24.30;99.90;;;;;;5071693;28;20168;-77
2021/06/22 08:47:20;;;;;;;0.83;0.70;;;24.40;99.90;;;;;;5071845;28;20415;-78
2021/06/22 08:49:46;;;;;;;1.77;0.87;;;24.20;99.90;;;;;;5091923;28;20415;-77
2021/06/22 08:52:13;;;;;;;0.60;0.57;;;24.20;99.90;;;;;;5077673;28;20789;-77
2021/06/22 08:54:38;;;;;;;1.00;0.70;;;24.20;99.90;;;;;;5080805;28;20433;-73
2021/06/22 08:57:04;;;;;;;3.63;0.80;;;24.10;99.90;;;;;;5091897;28;20494;-73
2021/06/22 08:59:30;;;;;;;1.33;0.70;;;24.10;99.90;;;;;;5079460;28;20293;-73
2021/06/22 09:01:55;;;;;;;7.03;1.07;;;24.20;99.90;;;;;;5072446;28;20170;-73
2021/06/22 09:04:21;;;;;;;1.33;0.80;;;24.20;99.90;;;;;;5076917;28;20206;-73
2021/06/22 09:06:47;;;;;;;1.30;1.00;;;24.10;99.90;;;;;;5083899;28;20160;-73
2021/06/22 09:09:13;;;;;;;1.53;0.80;;;24.10;99.90;;;;;;5081542;28;20188;-73
2021/06/22 09:12:06;;;;;;;1.00;1.00;;;24.00;99.90;;;;;;5091087;28;20409;-73
2021/06/22 09:14:35;;;;;;;23.00;5.03;;;23.90;99.90;;;;;;5090127;28;20239;-73
2021/06/22 09:17:02;;;;;;;4.73;1.00;;;23.80;99.90;;;;;;5079553;28;20458;-73
2021/06/22 09:19:30;;;;;;;1.20;0.60;;;23.80;99.90;;;;;;5095778;28;20452;-73
2021/06/22 09:21:56;;;;;;;2.63;1.20;;;;;;;;;;5083950;28;20758;-73
2021/06/22 09:24:27;;;;;;;1.13;0.90;;;24.00;99.90;;;;;;5078836;28;20410;-77
2021/06/22 09:26:54;;;;;;;1.53;0.80;;;23.80;99.90;;;;;;5084986;28;20900;-77
2021/06/22 09:29:23;;;;;;;2.17;0.87;;;23.70;99.90;;;;;;5094334;28;20433;-77
2021/06/22 09:31:55;;;;;;;5.83;0.80;;;23.70;99.90;;;;;;5077910;28;20485;-77
2021/06/22 09:34:21;;;;;;;0.70;0.70;;;23.70;99.90;;;;;;5090386;28;20417;-78
2021/06/22 09:36:53;;;;;;;0.80;0.80;;;23.80;99.90;;;;;;5095290;28;20402;-77
2021/06/22 09:39:20;;;;;;;1.80;0.77;;;23.70;99.90;;;;;;5095681;28;20379;-77
2021/06/22 09:41:46;;;;;;;2.77;0.80;;;23.80;99.90;;;;;;5094866;28;20485;-77
2021/06/22 09:44:30;;;;;;;0.87;0.80;;;23.90;99.90;;;;;;5076283;28;20639;-77
2021/06/22 09:46:57;;;;;;;1.17;0.70;;;23.90;99.90;;;;;;5075168;28;20399;-79
2021/06/22 09:49:27;;;;;;;2.37;0.87;;;23.70;99.90;;;;;;5074403;28;20406;-77
2021/06/22 09:52:00;;;;;;;1.10;1.00;;;23.50;99.90;;;;;;5075282;28;20406;-76
2021/06/22 09:54:33;;;;;;;7.10;1.00;;;23.40;99.90;;;;;;5075445;28;20508;-77
2021/06/22 09:57:06;;;;;;;10.63;1.00;;;23.30;99.90;;;;;;5074071;28;20450;-76
2021/06/22 09:59:54;;;;;;;1.30;0.90;;;23.30;99.90;;;;;;5073286;28;20803;-76
2021/06/22 10:02:29;;;;;;;3.47;0.90;;;23.30;99.90;;;;;;5052237;28;20907;-77
2021/06/22 10:04:54;;;;;;;2.70;1.00;;;23.20;99.90;;;;;;5051856;28;20414;-77
2021/06/22 10:07:23;;;;;;;1.00;0.90;;;23.20;99.90;;;;;;5053180;28;20418;-77
2021/06/22 10:09:54;;;;;;;2.23;1.27;;;23.10;99.90;;;;;;5070972;28;20204;-77
2021/06/22 10:12:21;;;;;;;1.00;0.90;;;22.80;99.90;;;;;;5068762;28;20499;-77
2021/06/22 10:14:49;;;;;;;1.57;0.83;;;22.50;99.90;;;;;;5070891;28;20453;-77
2021/06/22 10:17:21;;;;;;;1.10;0.90;;;22.40;99.90;;;;;;5071788;28;20542;-77
2021/06/22 10:19:48;;;;;;;1.70;1.37;;;22.50;99.90;;;;;;5061157;28;20524;-77
2021/06/22 10:22:18;;;;;;;1.20;1.10;;;22.30;99.90;;;;;;5051859;28;20399;-77
2021/06/22 10:24:46;;;;;;;3.10;1.37;;;22.30;99.90;;;;;;5052039;28;20463;-74
2021/06/22 10:27:16;;;;;;;3.10;1.10;;;22.50;99.90;;;;;;5053926;28;20421;-74
2021/06/22 10:29:46;;;;;;;11.03;1.10;;;22.60;99.90;;;;;;5054395;28;20809;-73
2021/06/22 10:32:13;;;;;;;1.00;0.90;;;22.60;99.90;;;;;;5072058;28;20917;-73
2021/06/22 10:34:44;;;;;;;1.10;1.00;;;22.80;99.90;;;;;;5069145;28;20421;-73
2021/06/22 10:37:22;;;;;;;0.90;0.90;;;22.90;99.90;;;;;;5065752;28;20540;-73
2021/06/22 10:39:54;;;;;;;1.00;0.90;;;23.10;99.90;;;;;;5073407;28;20438;-73
2021/06/22 10:42:21;;;;;;;0.90;0.90;;;23.20;99.90;;;;;;5073766;28;20476;-74
2021/06/22 10:44:48;;;;;;;5.70;1.20;;;23.50;99.90;;;;;;5079526;28;20481;-73
2021/06/22 10:47:30;;;;;;;5.90;1.67;;;23.80;99.90;;;;;;5084432;28;20905;-73
2021/06/22 10:49:59;;;;;;;1.57;1.10;;;24.10;99.90;;;;;;5081726;28;20511;-73
2021/06/22 10:52:42;;;;;;;1.57;0.80;;;24.20;99.90;;;;;;5081918;28;20417;-73
2021/06/22 10:55:10;;;;;;;2.17;1.10;;;24.40;99.90;;;;;;5086544;28;20438;-77
2021/06/22 10:57:58;;;;;;;1.20;1.00;;;24.20;99.90;;;;;;5089179;28;20460;-77
2021/06/22 11:00:37;;;;;;;1.63;1.20;;;24.20;99.90;;;;;;5071276;28;20416;-77
2021/06/22 11:03:26;;;;;;;3.43;1.10;;;24.00;99.90;;;;;;5054261;28;20418;-77
2021/06/22 11:06:13;;;;;;;9.83;1.47;;;23.90;99.90;;;;;;5071114;28;20419;-77
2021/06/22 11:08:41;;;;;;;1.50;1.27;;;23.80;99.90;;;;;;5070123;28;20427;-77
2021/06/22 11:11:07;;;;;;;1.40;1.30;;;23.70;99.90;;;;;;5054324;28;20430;-73
2021/06/22 11:13:36;;;;;;;1.30;1.13;;;23.80;99.90;;;;;;5071075;28;20417;-73
2021/06/22 11:16:07;;;;;;;1.70;1.23;;;23.90;99.90;;;;;;5071183;28;20717;-73
2021/06/22 11:18:51;;;;;;;1.57;1.40;;;23.90;99.90;;;;;;5070332;28;20464;-73
2021/06/22 11:21:27;;;;;;;4.07;1.20;;;23.80;99.90;;;;;;5070628;28;20393;-73
2021/06/22 11:24:18;;;;;;;0.93;0.93;;;23.90;99.90;;;;;;5078356;28;20453;-73
2021/06/22 11:26:47;;;;;;;3.73;1.53;;;23.90;99.90;;;;;;5091092;28;20757;-73
2021/06/22 11:29:18;;;;;;;5.53;1.90;;;24.10;99.90;;;;;;5092063;28;20425;-73
2021/06/22 11:31:53;;;;;;;1.30;1.20;;;24.20;99.90;;;;;;5077573;28;20436;-73
2021/06/22 11:34:29;;;;;;;1.53;1.00;;;24.20;99.90;;;;;;5072178;28;20418;-73
2021/06/22 11:37:22;;;;;;;1.30;1.13;;;24.30;99.90;;;;;;5057804;28;20450;-73
2021/06/22 11:40:12;;;;;;;1.00;1.00;;;24.70;99.90;;;;;;5071524;28;20787;-77
2021/06/22 11:43:13;;;;;;;1.93;1.13;;;24.90;99.90;;;;;;5078066;28;20424;-77
2021/06/22 11:45:41;;;;;;;1.30;1.20;;;24.90;99.90;;;;;;5051949;28;20431;-77
2021/06/22 11:48:07;;;;;;;2.30;1.17;;;24.50;99.90;;;;;;5051376;28;20437;-77
2021/06/22 11:50:47;;;;;;;1.20;1.10;;;24.50;99.90;;;;;;5051603;28;20451;-77
2021/06/22 11:53:16;;;;;;;1.80;1.70;;;24.40;99.90;;;;;;5066875;28;20196;-76
2021/06/22 11:56:22;;;;;;;1.67;1.40;;;24.10;99.90;;;;;;5064926;28;20527;-77
2021/06/22 11:58:53;;;;;;;1.23;1.13;;;24.10;99.90;;;;;;5070390;28;20453;-76
2021/06/22 12:01:24;;;;;;;3.23;1.40;;;23.80;99.90;;;;;;5071484;28;20434;-76
2021/06/22 12:03:53;;;;;;;3.90;1.47;;;23.70;99.90;;;;;;5065553;28;20433;-76
2021/06/22 12:06:29;;;;;;;1.30;1.20;;;23.60;99.90;;;;;;5067532;28;20437;-76
2021/06/22 12:09:18;;;;;;;2.63;1.10;;;23.40;99.90;;;;;;5067815;28;20425;-76
2021/06/22 12:11:45;;;;;;;2.10;1.27;;;23.30;99.90;;;;;;5082901;28;20462;-76
2021/06/22 12:14:15;;;;;;;4.63;1.47;;;23.20;99.90;;;;;;5079347;28;20433;-76
2021/06/22 12:16:53;;;;;;;2.90;1.50;;;23.20;99.90;;;;;;5059144;28;20474;-76
2021/06/22 12:19:21;;;;;;;1.43;1.33;;;23.00;99.90;;;;;;5092119;28;20500;-76
2021/06/22 12:21:57;;;;;;;1.63;1.27;;;23.00;99.90;;;;;;5075103;28;20380;-76
2021/06/22 12:24:43;;;;;;;1.20;1.10;;;23.00;99.90;;;;;;5072819;28;21050;-77
2021/06/22 12:27:23;;;;;;;8.70;1.37;;;22.90;99.90;;;;;;5078716;28;20428;-80
2021/06/22 12:29:59;;;;;;;2.57;1.37;;;22.70;99.90;;;;;;5077427;28;20841;-80
2021/06/22 12:32:52;;;;;;;1.17;1.07;;;22.60;99.90;;;;;;5072721;28;20399;-79
2021/06/22 12:38:41;;;;;;;2.30;1.50;;;22.20;99.90;;;;;;5090644;28;20487;-74
2021/06/22 12:41:29;;;;;;;5.80;1.50;;;22.00;99.90;;;;;;5094091;28;20478;-76
2021/06/22 12:43:55;;;;;;;2.50;1.10;;;21.90;99.90;;;;;;5097188;28;20389;-76
2021/06/22 12:46:21;;;;;;;4.40;2.10;;;21.70;99.90;;;;;;5097245;28;20409;-77
2021/06/22 12:49:09;;;;;;;1.53;1.43;;;21.60;99.90;;;;;;5095718;28;20430;-76
2021/06/22 12:51:37;;;;;;;4.73;1.90;;;21.50;99.90;;;;;;5097028;28;20642;-76
2021/06/22 12:54:13;;;;;;;5.67;2.00;;;21.50;99.90;;;;;;5097729;28;20467;-76
2021/06/22 12:56:56;;;;;;;6.70;2.50;;;21.60;99.90;;;;;;5096989;28;20393;-77
2021/06/22 12:59:26;;;;;;;9.70;3.03;;;21.60;99.90;;;;;;5092234;28;20857;-77
2021/06/22 13:01:54;;;;;;;2.80;2.03;;;21.70;99.90;;;;;;5097109;28;20410;-77
2021/06/22 13:04:22;;;;;;;8.20;2.60;;;21.70;99.90;;;;;;5096054;28;20429;-74
2021/06/22 13:06:51;;;;;;;9.27;3.13;;;21.60;99.90;;;;;;5090329;28;20762;-75
2021/06/22 13:09:20;;;;;;;3.77;1.80;;;21.60;99.90;;;;;;5084906;28;20764;-74
2021/06/22 13:11:57;;;;;;;4.20;1.90;;;21.60;99.90;;;;;;5077028;28;20406;-75
2021/06/22 13:14:25;;;;;;;5.37;2.23;;;21.50;99.90;;;;;;5089097;28;20579;-76
2021/06/22 13:17:04;;;;;;;4.30;2.00;;;21.50;99.90;;;;;;5090517;28;20435;-76
2021/06/22 13:19:32;;;;;;;5.40;2.13;;;21.40;99.90;;;;;;5076233;28;20434;-76
2021/06/22 13:22:29;;;;;;;4.73;2.50;;;21.40;99.90;;;;;;5076493;28;20444;-76
2021/06/22 13:24:57;;;;;;;3.37;1.93;;;21.40;99.90;;;;;;5076186;28;20429;-76
2021/06/22 13:27:53;;;;;;;7.50;2.47;;;21.50;99.90;;;;;;5082767;28;20474;-76
2021/06/22 13:30:20;;;;;;;7.17;2.37;;;21.60;99.90;;;;;;5079902;28;20428;-76
2021/06/22 13:32:59;;;;;;;7.30;2.00;;;21.70;99.90;;;;;;5075703;28;20405;-74
2021/06/22 13:35:35;;;;;;;1.97;1.87;;;22.00;99.90;;;;;;5075400;28;20430;-74
2021/06/22 13:38:16;;;;;;;9.20;2.43;;;22.10;99.90;;;;;;5082168;28;20496;-73
2021/06/22 13:40:57;;;;;;;3.20;1.73;;;22.20;99.90;;;;;;5095924;28;20427;-73
2021/06/22 13:43:24;;;;;;;3.30;1.60;;;22.20;99.90;;;;;;5081307;28;20424;-76
2021/06/22 13:45:54;;;;;;;2.93;1.70;;;22.20;99.90;;;;;;5095817;28;20409;-76
2021/06/22 13:48:32;;;;;;;10.93;2.67;;;22.00;99.90;;;;;;5091288;28;20424;-77
2021/06/22 13:51:01;;;;;;;4.47;2.40;;;21.80;99.90;;;;;;5093239;28;20421;-76
2021/06/22 13:53:48;;;;;;;5.63;2.40;;;21.60;99.90;;;;;;5094417;28;20414;-77
2021/06/22 13:56:18;;;;;;;2.83;2.10;;;21.40;99.90;;;;;;5090845;28;20433;-75
2021/06/22 13:58:45;;;;;;;3.87;2.10;;;21.20;99.90;;;;;;5091934;28;20457;-75
2021/06/22 14:01:12;;;;;;;4.00;2.50;;;20.90;99.90;;;;;;5083881;28;20439;-75
2021/06/22 14:03:38;;;;;;;3.60;2.10;;;20.70;99.90;;;;;;5094148;28;20551;-75
2021/06/22 14:06:04;;;;;;;7.60;3.00;;;20.60;99.90;;;;;;5087351;28;20826;-76
2021/06/22 14:08:47;;;;;;;6.93;3.23;;;20.50;99.90;;;;;;5074952;28;20787;-75
2021/06/22 14:11:17;;;;;;;5.83;2.43;;;20.40;1.00;;;;;;5075736;28;20504;-75
2021/06/22 14:14:05;;;;;;;2.93;2.47;;;20.40;1.00;;;;;;5075035;28;20893;-76
2021/06/22 14:16:43;;;;;;;3.13;2.23;;;20.30;1.00;;;;;;5086909;28;20489;-75
2021/06/22 14:19:08;;;;;;;3.00;2.47;;;20.30;1.00;;;;;;5090587;28;20419;-74
2021/06/22 14:21:34;;;;;;;3.77;2.73;;;20.30;1.00;;;;;;5095088;28;20389;-74
2021/06/22 14:24:11;;;;;;;5.00;2.90;;;20.30;1.00;;;;;;5095098;28;20170;-74
2021/06/22 14:26:53;;;;;;;3.10;2.35;;;20.30;1.00;;;;;;5081544;28;20170;-79
2021/06/22 14:29:52;;;;;;;4.53;2.50;;;20.40;1.00;;;;;;5084254;28;20648;-81